Time;durP1;ratioP1;P1;durP2;ratioP2;P2;SDS_P1;SDS_P2;PMS_P1;PMS_P2;Temp;Humidity;BMP_temperature;BMP_pressure;BME280_temperature;BME280_humidity;BME280_pressure;Samples;Min_cycle;Max_cycle;Signal;HPM_P1;HPM_P2
2023/12/30 00:02:01;;;;;;;10.70;5.33;;;;;;;;;;756031;181;925155;-60
2023/12/30 00:04:26;;;;;;;8.97;5.00;;;;;;;;;;757585;181;918908;-60
2023/12/30 00:06:51;;;;;;;9.60;5.43;;;;;;;;;;755883;181;816146;-60
2023/12/30 00:09:17;;;;;;;10.57;5.97;;;;;;;;;;758395;183;877271;-60
2023/12/30 00:11:43;;;;;;;10.10;5.53;;;;;;;;;;733860;186;929820;-60
2023/12/30 00:14:09;;;;;;;10.47;5.73;;;;;;;;;;736795;186;918970;-60
2023/12/30 00:16:36;;;;;;;9.65;5.85;;;;;;;;;;739956;189;920597;-68
2023/12/30 00:19:01;;;;;;;8.70;5.47;;;;;;;;;;755864;182;919917;-69
2023/12/30 00:21:26;;;;;;;8.57;5.40;;;;;;;;;;754755;182;918735;-60
2023/12/30 00:23:52;;;;;;;8.53;5.90;;;;;;;;;;760703;182;917336;-60
2023/12/30 00:26:18;;;;;;;10.73;5.87;;;;;;;;;;754754;179;919619;-60
2023/12/30 00:28:44;;;;;;;10.83;6.00;;;;;;;;;;757947;182;919354;-60
2023/12/30 00:31:10;;;;;;;9.13;5.70;;;;;;;;;;752446;183;920488;-60
2023/12/30 00:33:36;;;;;;;12.30;6.70;;;;;;;;;;754863;182;917754;-69
2023/12/30 00:36:02;;;;;;;9.50;6.33;;;;;;;;;;759807;181;918614;-68
2023/12/30 00:38:27;;;;;;;10.10;6.30;;;;;;;;;;739246;186;919114;-60
2023/12/30 00:40:53;;;;;;;8.83;5.50;;;;;;;;;;751454;183;919585;-68
2023/12/30 00:43:19;;;;;;;12.50;7.17;;;;;;;;;;754138;181;816600;-60
2023/12/30 00:45:45;;;;;;;8.90;5.70;;;;;;;;;;756651;182;918341;-60
2023/12/30 00:48:11;;;;;;;9.63;5.87;;;;;;;;;;756167;183;918359;-60
2023/12/30 00:50:37;;;;;;;13.00;5.87;;;;;;;;;;753938;182;936417;-59
2023/12/30 00:53:03;;;;;;;10.10;7.30;;;;;;;;;;755371;182;1020351;-68
2023/12/30 00:55:29;;;;;;;8.40;5.00;;;;;;;;;;760550;181;919372;-68
2023/12/30 00:57:54;;;;;;;12.70;6.10;;;;;;;;;;752492;183;919530;-60
2023/12/30 01:00:20;;;;;;;10.00;6.32;;;;;;;;;;755865;180;910933;-61
2023/12/30 01:02:46;;;;;;;8.03;5.53;;;;;;;;;;750673;184;915558;-60
2023/12/30 01:05:12;;;;;;;13.50;6.60;;;;;;;;;;757568;182;919496;-68
2023/12/30 01:07:38;;;;;;;11.27;6.37;;;;;;;;;;755767;181;921909;-68
2023/12/30 01:10:04;;;;;;;8.47;6.20;;;;;;;;;;763428;181;926586;-68
2023/12/30 01:12:30;;;;;;;6.87;5.07;;;;;;;;;;763099;178;918847;-68
2023/12/30 01:14:56;;;;;;;7.67;5.73;;;;;;;;;;759584;181;917505;-60
2023/12/30 01:17:21;;;;;;;8.97;5.37;;;;;;;;;;759628;181;909276;-68
2023/12/30 01:19:47;;;;;;;8.53;5.80;;;;;;;;;;765856;181;713253;-60
2023/12/30 01:22:13;;;;;;;7.47;5.27;;;;;;;;;;749917;184;917513;-60
2023/12/30 01:24:39;;;;;;;7.93;5.20;;;;;;;;;;764180;181;941303;-68
2023/12/30 01:27:05;;;;;;;7.63;4.80;;;;;;;;;;762113;180;919055;-67
2023/12/30 01:29:31;;;;;;;7.77;4.87;;;;;;;;;;758321;181;915511;-60
2023/12/30 01:31:57;;;;;;;9.20;4.87;;;;;;;;;;757304;179;930172;-60
2023/12/30 01:34:23;;;;;;;8.77;5.70;;;;;;;;;;754225;183;920210;-68
2023/12/30 01:36:48;;;;;;;10.07;4.90;;;;;;;;;;759311;181;915104;-60
2023/12/30 01:39:14;;;;;;;7.57;5.00;;;;;;;;;;757037;182;918547;-60
2023/12/30 01:41:40;;;;;;;8.33;5.27;;;;;;;;;;755105;182;827901;-60
2023/12/30 01:44:06;;;;;;;10.27;7.00;;;;;;;;;;755981;182;919291;-68
2023/12/30 01:46:32;;;;;;;8.70;5.70;;;;;;;;;;752768;181;933988;-68
2023/12/30 01:48:58;;;;;;;7.73;5.07;;;;;;;;;;754437;180;822640;-68
2023/12/30 01:51:23;;;;;;;7.40;4.80;;;;;;;;;;757124;181;931269;-68
2023/12/30 01:53:49;;;;;;;8.65;5.05;;;;;;;;;;746814;185;919302;-68
2023/12/30 01:56:17;;;;;;;7.23;4.30;;;;;;;;;;755487;181;921161;-69
2023/12/30 01:58:41;;;;;;;9.13;5.07;;;;;;;;;;746399;182;811867;-68
2023/12/30 02:01:07;;;;;;;8.17;5.00;;;;;;;;;;755794;185;812706;-60
2023/12/30 02:03:33;;;;;;;8.73;5.70;;;;;;;;;;746789;182;916705;-60
2023/12/30 02:05:58;;;;;;;8.30;4.63;;;;;;;;;;747423;181;898647;-68
2023/12/30 02:08:24;;;;;;;8.30;5.87;;;;;;;;;;767005;181;914182;-69
2023/12/30 02:10:50;;;;;;;7.97;4.87;;;;;;;;;;755322;180;837832;-60
2023/12/30 02:13:16;;;;;;;6.95;4.72;;;;;;;;;;751514;181;999477;-60
2023/12/30 02:15:42;;;;;;;8.10;4.90;;;;;;;;;;759936;182;918601;-60
2023/12/30 02:18:08;;;;;;;7.75;5.10;;;;;;;;;;751948;181;1633031;-68
2023/12/30 02:20:34;;;;;;;9.63;4.73;;;;;;;;;;759552;181;817622;-60
2023/12/30 02:23:00;;;;;;;9.68;5.82;;;;;;;;;;761201;181;825147;-67
2023/12/30 02:25:26;;;;;;;8.53;5.20;;;;;;;;;;748088;183;816151;-60
2023/12/30 02:27:52;;;;;;;8.77;5.70;;;;;;;;;;754925;181;818378;-60
2023/12/30 02:30:18;;;;;;;9.00;5.67;;;;;;;;;;753567;181;918236;-60
2023/12/30 02:32:44;;;;;;;8.03;4.80;;;;;;;;;;759587;181;921873;-68
2023/12/30 02:35:10;;;;;;;7.40;4.33;;;;;;;;;;754513;180;846637;-60
2023/12/30 02:37:35;;;;;;;6.47;3.93;;;;;;;;;;762833;181;813409;-60
2023/12/30 02:40:01;;;;;;;6.07;3.20;;;;;;;;;;762200;181;915236;-61
2023/12/30 02:42:27;;;;;;;5.73;3.60;;;;;;;;;;754485;183;918646;-60
2023/12/30 02:44:53;;;;;;;9.40;3.95;;;;;;;;;;754649;183;920298;-60
2023/12/30 02:47:19;;;;;;;6.23;3.67;;;;;;;;;;758753;183;859688;-68
2023/12/30 02:49:45;;;;;;;7.47;4.13;;;;;;;;;;730388;189;1021637;-68
2023/12/30 02:52:10;;;;;;;5.80;3.40;;;;;;;;;;757845;182;918543;-68
2023/12/30 02:54:36;;;;;;;4.77;3.00;;;;;;;;;;754211;182;928420;-60
2023/12/30 02:57:03;;;;;;;5.70;3.00;;;;;;;;;;759781;181;721439;-60
2023/12/30 02:59:29;;;;;;;5.67;3.13;;;;;;;;;;753643;182;920067;-60
2023/12/30 03:01:55;;;;;;;5.43;3.30;;;;;;;;;;755022;182;848913;-61
2023/12/30 03:04:20;;;;;;;5.87;3.40;;;;;;;;;;760407;182;864015;-61
2023/12/30 03:06:46;;;;;;;6.53;3.50;;;;;;;;;;752186;183;919072;-60
2023/12/30 03:09:12;;;;;;;6.27;2.90;;;;;;;;;;753799;183;918530;-60
2023/12/30 03:11:38;;;;;;;12.63;3.23;;;;;;;;;;748602;183;920149;-60
2023/12/30 03:14:04;;;;;;;7.33;3.90;;;;;;;;;;764614;181;919767;-68
2023/12/30 03:16:30;;;;;;;6.40;3.17;;;;;;;;;;763846;179;919792;-68
2023/12/30 03:18:55;;;;;;;4.40;2.67;;;;;;;;;;755791;181;920477;-61
2023/12/30 03:21:21;;;;;;;7.37;4.50;;;;;;;;;;757066;181;919744;-60
2023/12/30 03:23:47;;;;;;;5.03;3.07;;;;;;;;;;753613;182;920317;-69
2023/12/30 03:26:13;;;;;;;4.63;2.70;;;;;;;;;;751940;183;916745;-68
2023/12/30 03:28:39;;;;;;;5.10;3.37;;;;;;;;;;756334;181;916181;-70
2023/12/30 03:31:07;;;;;;;4.30;3.10;;;;;;;;;;755861;180;813144;-61
2023/12/30 03:33:30;;;;;;;7.03;4.00;;;;;;;;;;756330;181;895664;-61
2023/12/30 03:35:56;;;;;;;6.75;3.80;;;;;;;;;;761800;181;919263;-60
2023/12/30 03:38:22;;;;;;;5.63;3.87;;;;;;;;;;756800;181;916969;-60
2023/12/30 03:40:48;;;;;;;8.23;4.57;;;;;;;;;;756176;182;918424;-60
2023/12/30 03:43:14;;;;;;;4.97;3.40;;;;;;;;;;755455;180;919475;-60
2023/12/30 03:45:40;;;;;;;6.47;3.47;;;;;;;;;;744152;185;917698;-60
2023/12/30 03:48:06;;;;;;;6.13;3.47;;;;;;;;;;751028;181;920330;-60
2023/12/30 03:50:32;;;;;;;7.50;3.70;;;;;;;;;;751052;186;916212;-61
2023/12/30 03:52:58;;;;;;;6.57;4.00;;;;;;;;;;762984;181;872756;-70
2023/12/30 03:55:24;;;;;;;7.27;4.50;;;;;;;;;;753050;181;926788;-68
2023/12/30 03:57:50;;;;;;;5.60;3.95;;;;;;;;;;761682;181;887574;-68
2023/12/30 04:00:16;;;;;;;8.30;4.47;;;;;;;;;;759019;183;867224;-69
2023/12/30 04:02:41;;;;;;;7.47;4.00;;;;;;;;;;756219;181;915845;-70
2023/12/30 04:05:07;;;;;;;8.40;4.30;;;;;;;;;;754946;181;918979;-68
2023/12/30 04:07:33;;;;;;;5.50;3.83;;;;;;;;;;759943;181;917468;-61
2023/12/30 04:09:59;;;;;;;7.20;4.23;;;;;;;;;;747177;186;621936;-67
2023/12/30 04:12:25;;;;;;;6.63;3.63;;;;;;;;;;750757;185;928265;-70
2023/12/30 04:14:51;;;;;;;6.10;3.60;;;;;;;;;;753105;181;619052;-68
2023/12/30 04:17:16;;;;;;;5.20;3.50;;;;;;;;;;764946;181;621505;-69
2023/12/30 04:19:42;;;;;;;5.67;3.50;;;;;;;;;;754310;181;814330;-69
2023/12/30 04:22:08;;;;;;;5.03;3.55;;;;;;;;;;755310;182;918735;-60
2023/12/30 04:24:34;;;;;;;7.50;3.83;;;;;;;;;;759600;181;918763;-60
2023/12/30 04:27:00;;;;;;;5.40;3.53;;;;;;;;;;759297;181;906527;-68
2023/12/30 04:29:28;;;;;;;5.33;3.10;;;;;;;;;;756742;182;618953;-69
2023/12/30 04:31:51;;;;;;;3.90;2.63;;;;;;;;;;763850;178;620953;-69
2023/12/30 04:34:17;;;;;;;8.50;2.87;;;;;;;;;;757957;183;632343;-68
2023/12/30 04:36:43;;;;;;;4.90;3.33;;;;;;;;;;756856;181;816953;-60
2023/12/30 04:39:09;;;;;;;4.90;3.23;;;;;;;;;;758230;182;920762;-61
2023/12/30 04:41:35;;;;;;;3.90;2.87;;;;;;;;;;751864;182;915621;-69
2023/12/30 04:44:01;;;;;;;5.55;3.67;;;;;;;;;;752718;181;916548;-60
2023/12/30 04:46:26;;;;;;;6.97;3.93;;;;;;;;;;756651;181;922316;-61
2023/12/30 04:48:54;;;;;;;6.33;3.80;;;;;;;;;;767295;181;821620;-60
2023/12/30 04:51:18;;;;;;;7.23;3.50;;;;;;;;;;756293;181;939714;-68
2023/12/30 04:53:44;;;;;;;4.97;3.35;;;;;;;;;;760185;181;850381;-68
2023/12/30 04:56:17;;;;;;;4.60;3.23;;;;;;;;;;765120;181;881920;-60
2023/12/30 04:58:43;;;;;;;7.97;4.40;;;;;;;;;;754964;182;920104;-60
2023/12/30 05:01:09;;;;;;;4.97;3.67;;;;;;;;;;743381;185;916304;-60
2023/12/30 05:03:35;;;;;;;9.37;4.40;;;;;;;;;;748897;185;919491;-68
2023/12/30 05:06:01;;;;;;;7.23;4.47;;;;;;;;;;753015;183;913123;-68
2023/12/30 05:08:26;;;;;;;9.40;4.57;;;;;;;;;;752762;181;915726;-68
2023/12/30 05:10:52;;;;;;;5.40;4.00;;;;;;;;;;756246;182;915707;-60
2023/12/30 05:13:18;;;;;;;6.13;3.47;;;;;;;;;;758109;183;920423;-60
2023/12/30 05:15:44;;;;;;;8.43;4.90;;;;;;;;;;752889;181;922237;-59
2023/12/30 05:18:10;;;;;;;6.62;4.43;;;;;;;;;;756139;181;921570;-59
2023/12/30 05:20:36;;;;;;;7.80;4.87;;;;;;;;;;758556;182;915562;-60
2023/12/30 05:23:02;;;;;;;7.37;4.97;;;;;;;;;;759082;181;818493;-68
2023/12/30 05:25:27;;;;;;;8.17;5.67;;;;;;;;;;752028;183;890550;-69
2023/12/30 05:27:53;;;;;;;8.50;5.25;;;;;;;;;;755982;181;917937;-67
2023/12/30 05:30:20;;;;;;;6.70;5.00;;;;;;;;;;762347;182;767174;-60
2023/12/30 05:32:45;;;;;;;10.40;4.40;;;;;;;;;;751625;182;920027;-60
2023/12/30 05:35:11;;;;;;;9.60;5.70;;;;;;;;;;754517;182;838148;-60
2023/12/30 05:37:37;;;;;;;7.47;4.83;;;;;;;;;;760685;181;928743;-68
2023/12/30 05:40:06;;;;;;;6.57;4.33;;;;;;;;;;757347;182;911036;-70
2023/12/30 05:42:30;;;;;;;7.50;5.30;;;;;;;;;;755602;182;818608;-69
2023/12/30 05:44:55;;;;;;;9.03;6.00;;;;;;;;;;756031;184;773700;-68
2023/12/30 05:47:20;;;;;;;8.73;5.53;;;;;;;;;;756636;181;932313;-61
2023/12/30 05:49:46;;;;;;;9.57;5.30;;;;;;;;;;753374;183;920624;-60
2023/12/30 05:52:12;;;;;;;7.77;5.23;;;;;;;;;;757856;181;915872;-60
2023/12/30 05:54:38;;;;;;;11.70;5.90;;;;;;;;;;756588;179;917351;-70
2023/12/30 05:57:04;;;;;;;6.23;4.80;;;;;;;;;;755583;181;919355;-69
2023/12/30 05:59:30;;;;;;;9.17;5.57;;;;;;;;;;757048;182;919108;-61
2023/12/30 06:01:58;;;;;;;7.43;4.83;;;;;;;;;;761487;181;918232;-60
2023/12/30 06:04:21;;;;;;;8.30;4.80;;;;;;;;;;755665;182;919132;-69
2023/12/30 06:06:47;;;;;;;6.95;4.50;;;;;;;;;;762952;178;815420;-68
2023/12/30 06:09:13;;;;;;;5.27;3.57;;;;;;;;;;756739;184;921090;-60
2023/12/30 06:11:39;;;;;;;8.67;6.43;;;;;;;;;;763093;181;817568;-69
2023/12/30 06:14:05;;;;;;;7.20;4.63;;;;;;;;;;757166;181;900233;-68
2023/12/30 06:16:31;;;;;;;9.20;4.97;;;;;;;;;;759986;181;817605;-60
2023/12/30 06:18:57;;;;;;;8.27;4.87;;;;;;;;;;756032;181;915470;-69
2023/12/30 06:21:22;;;;;;;9.10;6.20;;;;;;;;;;754599;182;827474;-61
2023/12/30 06:23:48;;;;;;;8.60;5.17;;;;;;;;;;753813;181;913912;-61
2023/12/30 06:26:14;;;;;;;8.32;5.53;;;;;;;;;;765073;181;821422;-60
2023/12/30 06:28:40;;;;;;;11.40;6.80;;;;;;;;;;753026;182;914897;-69
2023/12/30 06:31:06;;;;;;;10.40;5.93;;;;;;;;;;754422;180;903412;-60
2023/12/30 06:33:32;;;;;;;12.53;6.27;;;;;;;;;;759224;182;912721;-61
2023/12/30 06:35:58;;;;;;;8.20;5.33;;;;;;;;;;754854;182;918848;-68
2023/12/30 06:38:23;;;;;;;11.77;6.83;;;;;;;;;;756238;182;818014;-61
2023/12/30 06:40:49;;;;;;;9.15;5.90;;;;;;;;;;760723;182;830308;-68
2023/12/30 06:43:16;;;;;;;7.40;5.67;;;;;;;;;;751484;182;1631763;-60
2023/12/30 06:45:41;;;;;;;9.00;6.10;;;;;;;;;;756090;182;861858;-60
2023/12/30 06:48:07;;;;;;;10.90;6.23;;;;;;;;;;756826;184;822122;-68
2023/12/30 06:50:33;;;;;;;8.93;5.17;;;;;;;;;;755531;180;882760;-68
2023/12/30 06:52:59;;;;;;;11.90;5.85;;;;;;;;;;753684;182;914884;-60
2023/12/30 06:55:24;;;;;;;8.63;4.90;;;;;;;;;;741527;185;825541;-68
2023/12/30 06:57:50;;;;;;;6.00;3.93;;;;;;;;;;757943;183;913985;-60
2023/12/30 07:00:16;;;;;;;7.93;4.83;;;;;;;;;;736206;188;824400;-60
2023/12/30 07:02:44;;;;;;;7.13;4.47;;;;;;;;;;735380;186;917375;-60
2023/12/30 07:05:08;;;;;;;8.20;4.90;;;;;;;;;;743452;186;933736;-60
2023/12/30 07:07:34;;;;;;;9.33;7.07;;;;;;;;;;739352;187;925129;-60
2023/12/30 07:10:00;;;;;;;7.47;4.30;;;;;;;;;;758624;181;818856;-60
2023/12/30 07:12:26;;;;;;;8.27;4.07;;;;;;;;;;768043;181;916855;-68
2023/12/30 07:14:51;;;;;;;10.03;4.80;;;;;;;;;;755569;181;825927;-70
2023/12/30 07:17:17;;;;;;;7.50;4.43;;;;;;;;;;753278;182;916990;-60
2023/12/30 07:19:43;;;;;;;6.03;4.13;;;;;;;;;;755870;181;917564;-61
2023/12/30 07:22:09;;;;;;;8.00;4.50;;;;;;;;;;753378;183;913223;-60
2023/12/30 07:24:35;;;;;;;11.10;5.80;;;;;;;;;;755767;182;914800;-68
2023/12/30 07:27:01;;;;;;;6.63;4.50;;;;;;;;;;754978;181;918588;-60
2023/12/30 07:29:26;;;;;;;7.40;4.90;;;;;;;;;;761298;181;911849;-60
2023/12/30 07:31:52;;;;;;;9.10;5.30;;;;;;;;;;755264;181;913771;-68
2023/12/30 07:34:18;;;;;;;7.43;4.30;;;;;;;;;;754521;182;1030405;-69
2023/12/30 07:36:44;;;;;;;9.23;5.43;;;;;;;;;;754827;184;918585;-61
2023/12/30 07:39:10;;;;;;;9.10;5.73;;;;;;;;;;756499;181;812184;-60
2023/12/30 07:41:38;;;;;;;8.10;5.20;;;;;;;;;;755015;182;917733;-68
2023/12/30 07:44:01;;;;;;;8.17;5.60;;;;;;;;;;759710;183;627965;-68
2023/12/30 07:46:27;;;;;;;8.80;5.80;;;;;;;;;;734814;189;917782;-60
2023/12/30 07:48:53;;;;;;;7.77;5.33;;;;;;;;;;735810;185;919473;-61
2023/12/30 07:51:19;;;;;;;10.23;6.10;;;;;;;;;;737262;186;921646;-68
2023/12/30 07:53:45;;;;;;;8.73;5.27;;;;;;;;;;746093;185;918839;-69
2023/12/30 07:56:12;;;;;;;8.57;4.97;;;;;;;;;;761280;178;813857;-60
2023/12/30 07:58:39;;;;;;;10.43;5.70;;;;;;;;;;751088;183;948713;-60
2023/12/30 08:01:04;;;;;;;9.67;5.53;;;;;;;;;;756839;182;833676;-68
2023/12/30 08:03:30;;;;;;;8.57;6.77;;;;;;;;;;754144;180;918176;-70
2023/12/30 08:05:56;;;;;;;10.40;5.68;;;;;;;;;;756141;182;816395;-69
2023/12/30 08:08:22;;;;;;;8.87;5.80;;;;;;;;;;757351;183;805002;-60
2023/12/30 08:10:48;;;;;;;11.60;5.20;;;;;;;;;;757298;181;816102;-68
2023/12/30 08:13:16;;;;;;;9.17;5.53;;;;;;;;;;753147;181;816381;-60
2023/12/30 08:15:39;;;;;;;6.60;4.70;;;;;;;;;;756163;181;851533;-60
2023/12/30 08:18:05;;;;;;;8.18;5.45;;;;;;;;;;745584;186;851410;-60
2023/12/30 08:20:31;;;;;;;10.77;5.07;;;;;;;;;;755784;183;914788;-69
2023/12/30 08:22:57;;;;;;;8.43;5.53;;;;;;;;;;756590;181;831470;-60
2023/12/30 08:25:23;;;;;;;8.43;5.68;;;;;;;;;;760600;181;815194;-68
2023/12/30 08:27:49;;;;;;;8.23;4.50;;;;;;;;;;754414;181;916806;-60
2023/12/30 08:30:15;;;;;;;7.27;4.33;;;;;;;;;;752675;181;918543;-60
2023/12/30 08:32:40;;;;;;;6.37;4.33;;;;;;;;;;757407;183;885654;-60
2023/12/30 08:35:08;;;;;;;7.67;5.17;;;;;;;;;;751789;183;1125247;-68
2023/12/30 08:37:33;;;;;;;9.33;4.87;;;;;;;;;;737025;185;919875;-68
2023/12/30 08:39:59;;;;;;;4.93;4.03;;;;;;;;;;763225;181;866605;-68
2023/12/30 08:42:24;;;;;;;5.17;3.93;;;;;;;;;;760009;182;627629;-60
2023/12/30 08:44:50;;;;;;;5.33;3.60;;;;;;;;;;760279;181;636818;-70
2023/12/30 08:47:16;;;;;;;7.00;4.30;;;;;;;;;;756254;181;816561;-69
2023/12/30 08:49:42;;;;;;;6.28;4.05;;;;;;;;;;759136;181;903344;-61
2023/12/30 08:52:08;;;;;;;7.07;4.10;;;;;;;;;;752008;182;873266;-61
2023/12/30 08:54:34;;;;;;;4.60;3.40;;;;;;;;;;753216;182;817333;-60
2023/12/30 08:56:59;;;;;;;7.90;3.97;;;;;;;;;;759605;181;917814;-69
2023/12/30 08:59:25;;;;;;;16.63;4.00;;;;;;;;;;754570;182;924295;-69
2023/12/30 09:01:51;;;;;;;7.27;3.53;;;;;;;;;;746771;182;913769;-60
2023/12/30 09:04:17;;;;;;;6.37;3.77;;;;;;;;;;762006;181;816933;-61
2023/12/30 09:06:43;;;;;;;4.90;3.23;;;;;;;;;;756000;178;808854;-61
2023/12/30 09:09:09;;;;;;;5.57;3.37;;;;;;;;;;754749;181;909567;-60
2023/12/30 09:11:38;;;;;;;5.78;3.97;;;;;;;;;;755275;182;897396;-69
2023/12/30 09:14:01;;;;;;;6.10;3.47;;;;;;;;;;756515;181;917335;-69
2023/12/30 09:16:27;;;;;;;6.47;4.00;;;;;;;;;;755324;182;820127;-61
2023/12/30 09:18:53;;;;;;;6.40;3.60;;;;;;;;;;752050;183;918659;-61
2023/12/30 09:21:18;;;;;;;7.40;4.10;;;;;;;;;;733210;188;1634900;-61
2023/12/30 09:23:44;;;;;;;6.40;3.47;;;;;;;;;;754448;182;935965;-61
2023/12/30 09:26:12;;;;;;;6.97;3.13;;;;;;;;;;756787;179;817667;-60
2023/12/30 09:28:36;;;;;;;4.53;2.80;;;;;;;;;;758353;184;823053;-61
2023/12/30 09:31:02;;;;;;;6.40;3.57;;;;;;;;;;756864;181;918866;-60
2023/12/30 09:33:28;;;;;;;4.23;2.47;;;;;;;;;;754873;181;910078;-60
2023/12/30 09:35:54;;;;;;;4.90;2.50;;;;;;;;;;758212;183;870189;-70
2023/12/30 09:38:19;;;;;;;5.60;2.30;;;;;;;;;;753002;183;918918;-59
2023/12/30 09:40:45;;;;;;;5.03;2.73;;;;;;;;;;756195;182;917380;-69
2023/12/30 09:43:11;;;;;;;4.80;2.10;;;;;;;;;;753932;181;1021374;-68
2023/12/30 09:45:39;;;;;;;3.40;1.77;;;;;;;;;;761461;181;855300;-60
2023/12/30 09:48:03;;;;;;;3.97;2.50;;;;;;;;;;755855;182;919720;-69
2023/12/30 09:50:29;;;;;;;3.20;2.17;;;;;;;;;;757056;181;916914;-68
2023/12/30 09:52:55;;;;;;;3.73;2.43;;;;;;;;;;759337;182;925291;-62
2023/12/30 09:55:21;;;;;;;3.13;1.80;;;;;;;;;;752540;181;869531;-68
2023/12/30 09:57:46;;;;;;;4.27;2.40;;;;;;;;;;752333;183;919087;-68
2023/12/30 10:00:13;;;;;;;3.73;1.90;;;;;;;;;;761018;181;810993;-69
2023/12/30 10:02:39;;;;;;;3.17;1.80;;;;;;;;;;749581;185;827006;-61
2023/12/30 10:05:05;;;;;;;4.95;2.10;;;;;;;;;;756239;181;915485;-69
2023/12/30 10:07:33;;;;;;;3.50;2.15;;;;;;;;;;746205;183;919283;-61
2023/12/30 10:09:57;;;;;;;4.90;2.43;;;;;;;;;;753297;186;723313;-62
2023/12/30 10:12:23;;;;;;;4.93;1.83;;;;;;;;;;749182;183;920687;-61
2023/12/30 10:14:49;;;;;;;4.23;2.47;;;;;;;;;;747321;185;918384;-70
2023/12/30 10:17:15;;;;;;;3.33;2.10;;;;;;;;;;752126;185;830781;-61
2023/12/30 10:19:40;;;;;;;4.23;2.40;;;;;;;;;;753603;181;857181;-69
2023/12/30 10:22:06;;;;;;;4.07;2.23;;;;;;;;;;754135;182;1021982;-61
2023/12/30 10:24:32;;;;;;;3.83;2.50;;;;;;;;;;755229;183;968544;-68
2023/12/30 10:27:03;;;;;;;4.03;2.40;;;;;;;;;;758077;181;918789;-69
2023/12/30 10:29:24;;;;;;;4.17;2.73;;;;;;;;;;754241;183;816898;-61
2023/12/30 10:31:59;;;;;;;4.10;2.90;;;;;;;;;;755708;178;817430;-69
2023/12/30 10:34:24;;;;;;;5.57;2.63;;;;;;;;;;744042;186;816441;-61
2023/12/30 10:36:50;;;;;;;4.90;3.03;;;;;;;;;;753717;181;808730;-68
2023/12/30 10:39:20;;;;;;;6.10;2.60;;;;;;;;;;761995;180;919220;-61
2023/12/30 10:41:42;;;;;;;5.77;2.80;;;;;;;;;;762515;181;824923;-69
2023/12/30 10:44:08;;;;;;;5.33;2.70;;;;;;;;;;759438;181;734511;-61
2023/12/30 10:46:33;;;;;;;5.13;2.77;;;;;;;;;;759399;182;716614;-61
2023/12/30 10:49:03;;;;;;;5.30;3.00;;;;;;;;;;759995;181;619818;-61
2023/12/30 10:51:25;;;;;;;5.27;2.70;;;;;;;;;;764030;181;633124;-69
2023/12/30 10:53:51;;;;;;;5.47;3.10;;;;;;;;;;745627;185;697888;-61
2023/12/30 10:56:19;;;;;;;5.20;3.40;;;;;;;;;;751889;184;629202;-69
2023/12/30 10:58:42;;;;;;;5.73;2.50;;;;;;;;;;756113;185;614208;-61
2023/12/30 11:01:09;;;;;;;5.27;3.10;;;;;;;;;;757560;181;633298;-61
2023/12/30 11:03:34;;;;;;;4.47;3.07;;;;;;;;;;758028;182;624584;-69
2023/12/30 11:06:04;;;;;;;4.70;2.60;;;;;;;;;;761991;181;618854;-69
2023/12/30 11:08:30;;;;;;;4.23;2.73;;;;;;;;;;754143;182;917241;-61
2023/12/30 11:10:58;;;;;;;3.30;1.77;;;;;;;;;;754167;181;918625;-61
2023/12/30 11:13:23;;;;;;;3.33;2.17;;;;;;;;;;755218;182;923993;-61
2023/12/30 11:15:49;;;;;;;6.17;2.03;;;;;;;;;;761206;181;823471;-71
2023/12/30 11:18:15;;;;;;;2.77;1.30;;;;;;;;;;752864;183;919372;-69
2023/12/30 11:20:44;;;;;;;2.62;1.73;;;;;;;;;;731059;189;911202;-61
2023/12/30 11:23:10;;;;;;;4.00;1.40;;;;;;;;;;739815;189;925263;-59
2023/12/30 11:25:37;;;;;;;3.05;1.45;;;;;;;;;;756088;182;945699;-69
2023/12/30 11:28:13;;;;;;;3.10;1.37;;;;;;;;;;748905;186;913922;-70
2023/12/30 11:30:38;;;;;;;4.70;1.70;;;;;;;;;;748775;185;918601;-69
2023/12/30 11:33:03;;;;;;;2.90;1.40;;;;;;;;;;765501;181;800143;-69
2023/12/30 11:35:29;;;;;;;3.17;1.80;;;;;;;;;;759082;181;923437;-69
2023/12/30 11:37:55;;;;;;;6.50;1.27;;;;;;;;;;755043;182;919290;-60
2023/12/30 11:40:21;;;;;;;4.27;1.30;;;;;;;;;;762670;181;920491;-60
2023/12/30 11:42:47;;;;;;;5.75;1.67;;;;;;;;;;739269;186;827776;-69
2023/12/30 11:45:13;;;;;;;3.80;1.80;;;;;;;;;;755406;182;816872;-61
2023/12/30 11:47:38;;;;;;;2.90;1.40;;;;;;;;;;751284;184;918596;-61
2023/12/30 11:50:07;;;;;;;4.07;1.50;;;;;;;;;;759807;182;816093;-69
2023/12/30 11:52:31;;;;;;;2.90;1.40;;;;;;;;;;762480;181;639862;-69
2023/12/30 11:54:56;;;;;;;3.07;1.67;;;;;;;;;;760798;181;882900;-70
2023/12/30 11:57:22;;;;;;;4.43;1.73;;;;;;;;;;760618;181;918997;-69
2023/12/30 11:59:49;;;;;;;3.80;1.63;;;;;;;;;;754675;180;918960;-70
2023/12/30 12:02:15;;;;;;;2.93;1.63;;;;;;;;;;756148;182;816450;-69
2023/12/30 12:04:40;;;;;;;5.70;2.03;;;;;;;;;;762155;181;819468;-70
2023/12/30 12:07:07;;;;;;;4.37;1.63;;;;;;;;;;751558;179;826068;-69
2023/12/30 12:09:32;;;;;;;2.67;1.33;;;;;;;;;;761210;181;926216;-69
2023/12/30 12:11:57;;;;;;;3.80;1.53;;;;;;;;;;751925;184;920062;-61
2023/12/30 12:14:23;;;;;;;3.30;1.47;;;;;;;;;;756637;183;920201;-61
2023/12/30 12:16:49;;;;;;;3.13;1.40;;;;;;;;;;756680;181;918920;-69
2023/12/30 12:19:15;;;;;;;2.97;1.60;;;;;;;;;;758371;182;721213;-61
2023/12/30 12:21:41;;;;;;;2.50;1.37;;;;;;;;;;760976;181;924321;-61
2023/12/30 12:24:07;;;;;;;3.07;1.60;;;;;;;;;;755340;182;917143;-61
2023/12/30 12:26:32;;;;;;;2.83;1.43;;;;;;;;;;752958;181;918712;-62
2023/12/30 12:28:58;;;;;;;3.67;1.53;;;;;;;;;;759446;181;918182;-69
2023/12/30 12:31:31;;;;;;;4.20;1.60;;;;;;;;;;757579;181;906818;-69
2023/12/30 12:33:57;;;;;;;3.97;1.63;;;;;;;;;;747532;186;919204;-61
2023/12/30 12:36:23;;;;;;;2.60;1.23;;;;;;;;;;756474;181;934215;-69
2023/12/30 12:38:50;;;;;;;2.73;1.43;;;;;;;;;;757240;183;731875;-61
2023/12/30 12:41:15;;;;;;;3.73;1.93;;;;;;;;;;758871;178;818615;-61
2023/12/30 12:43:41;;;;;;;4.57;1.80;;;;;;;;;;760376;181;834511;-70
2023/12/30 12:46:07;;;;;;;3.43;1.30;;;;;;;;;;753929;184;917457;-68
2023/12/30 12:48:32;;;;;;;4.10;1.70;;;;;;;;;;757463;181;633834;-70
2023/12/30 12:50:58;;;;;;;2.93;1.70;;;;;;;;;;754052;182;942624;-70
2023/12/30 12:53:24;;;;;;;3.20;1.70;;;;;;;;;;753649;182;914637;-61
2023/12/30 12:55:50;;;;;;;4.07;1.57;;;;;;;;;;758614;181;831954;-62
2023/12/30 12:58:16;;;;;;;4.87;1.90;;;;;;;;;;755523;182;939344;-62
2023/12/30 13:00:42;;;;;;;2.93;1.43;;;;;;;;;;753365;183;940770;-61
2023/12/30 13:03:07;;;;;;;3.03;1.83;;;;;;;;;;733589;188;840198;-70
2023/12/30 13:05:33;;;;;;;3.73;1.80;;;;;;;;;;755997;180;923004;-69
2023/12/30 13:07:59;;;;;;;3.50;1.80;;;;;;;;;;762406;180;851906;-62
2023/12/30 13:10:37;;;;;;;4.00;2.10;;;;;;;;;;758369;181;909113;-62
2023/12/30 13:13:05;;;;;;;3.57;2.20;;;;;;;;;;757862;182;947875;-63
2023/12/30 13:15:29;;;;;;;3.77;2.00;;;;;;;;;;759398;182;700785;-67
2023/12/30 13:17:54;;;;;;;4.57;1.87;;;;;;;;;;752052;183;932452;-61
2023/12/30 13:20:20;;;;;;;3.37;2.10;;;;;;;;;;761505;181;814923;-68
2023/12/30 13:22:49;;;;;;;4.37;2.13;;;;;;;;;;758734;178;914034;-61
2023/12/30 13:25:13;;;;;;;3.23;2.10;;;;;;;;;;754649;181;921407;-68
2023/12/30 13:27:38;;;;;;;3.97;1.77;;;;;;;;;;756093;184;820454;-62
2023/12/30 13:30:04;;;;;;;4.90;2.43;;;;;;;;;;758604;181;1020466;-68
2023/12/30 13:32:31;;;;;;;4.27;1.80;;;;;;;;;;754012;182;916786;-69
2023/12/30 13:34:57;;;;;;;6.10;2.10;;;;;;;;;;754943;181;761275;-62
2023/12/30 13:37:22;;;;;;;3.87;1.75;;;;;;;;;;755906;183;915376;-68
2023/12/30 13:39:47;;;;;;;3.93;1.40;;;;;;;;;;752730;183;913551;-62
2023/12/30 13:42:14;;;;;;;6.67;1.93;;;;;;;;;;754297;181;916574;-68
2023/12/30 13:44:42;;;;;;;3.10;1.60;;;;;;;;;;760798;181;920833;-62
2023/12/30 13:52:10;;;;;;;4.83;1.77;;;;;;;;;;753098;183;913457;-68
2023/12/30 13:54:40;;;;;;;3.90;1.77;;;;;;;;;;757063;181;913757;-63
2023/12/30 13:57:12;;;;;;;3.27;1.10;;;;;;;;;;753009;181;938600;-63
2023/12/30 13:59:27;;;;;;;3.60;1.43;;;;;;;;;;754917;182;782586;-62
2023/12/30 14:01:56;;;;;;;4.10;2.37;;;;;;;;;;757401;182;921067;-67
2023/12/30 14:04:20;;;;;;;3.33;1.57;;;;;;;;;;753838;182;918146;-63
2023/12/30 14:06:45;;;;;;;4.87;1.63;;;;;;;;;;753426;181;917822;-63
2023/12/30 14:11:48;;;;;;;3.40;1.77;;;;;;;;;;762658;178;797418;-63
2023/12/30 14:14:11;;;;;;;2.93;1.57;;;;;;;;;;754601;180;918707;-63
2023/12/30 14:16:38;;;;;;;3.20;1.83;;;;;;;;;;756496;181;916447;-63
2023/12/30 14:19:00;;;;;;;5.33;2.00;;;;;;;;;;760659;181;822344;-68
2023/12/30 14:21:26;;;;;;;4.13;1.60;;;;;;;;;;754595;181;939860;-68
2023/12/30 14:23:53;;;;;;;4.95;1.75;;;;;;;;;;753950;181;919911;-68
2023/12/30 14:26:18;;;;;;;4.37;1.93;;;;;;;;;;756968;181;782226;-68
2023/12/30 14:28:44;;;;;;;5.93;2.03;;;;;;;;;;757206;181;858087;-62